Time;durP1;ratioP1;P1;durP2;ratioP2;P2;SDS_P1;SDS_P2;PMS_P1;PMS_P2;Temp;Humidity;BMP_temperature;BMP_pressure;BME280_temperature;BME280_humidity;BME280_pressure;Samples;Min_cycle;Max_cycle;Signal;HPM_P1;HPM_P2
2021/09/13 00:01:27;;;;;;;4.35;2.97;;;;;;;11.42;93.78;98675.22;5023756;28;20055;-66
2021/09/13 00:03:52;;;;;;;4.88;3.00;;;;;;;11.56;94.02;98675.78;5023652;28;20099;-66
2021/09/13 00:06:17;;;;;;;5.03;2.50;;;;;;;11.59;93.38;98670.44;5023485;28;20053;-66
2021/09/13 00:08:43;;;;;;;8.90;2.58;;;;;;;11.56;93.25;98675.78;5023698;28;20025;-66
2021/09/13 00:11:08;;;;;;;4.18;2.80;;;;;;;11.34;93.61;98678.91;5023764;28;20069;-66
2021/09/13 00:13:34;;;;;;;3.85;2.60;;;;;;;11.24;93.53;98673.00;5027429;28;20029;-66
2021/09/13 00:16:00;;;;;;;4.15;2.55;;;;;;;11.35;94.35;98665.72;5027348;28;20017;-66
2021/09/13 00:18:26;;;;;;;2.67;2.33;;;;;;;11.30;94.43;98672.00;5027333;28;20029;-66
2021/09/13 00:20:52;;;;;;;4.43;2.72;;;;;;;11.19;94.30;98673.97;5027246;28;20022;-66
2021/09/13 00:23:18;;;;;;;3.92;2.60;;;;;;;11.33;94.33;98664.88;5027211;28;20368;-66
2021/09/13 00:25:43;;;;;;;5.28;2.67;;;;;;;11.37;94.37;98674.47;5027321;28;20305;-66
2021/09/13 00:28:08;;;;;;;5.25;2.60;;;;;;;11.37;93.95;98663.91;5027107;28;20021;-66
2021/09/13 00:30:34;;;;;;;3.15;2.40;;;;;;;11.31;93.61;98665.81;5027115;28;20068;-66
2021/09/13 00:32:59;;;;;;;4.18;3.10;;;;;;;11.21;93.82;98667.78;5027044;28;20331;-66
2021/09/13 00:35:25;;;;;;;3.60;2.30;;;;;;;11.13;93.59;98659.16;5026994;28;20021;-66
2021/09/13 00:37:51;;;;;;;3.38;2.50;;;;;;;11.19;93.38;98659.03;5027176;28;20025;-66
2021/09/13 00:40:17;;;;;;;4.53;2.78;;;;;;;11.08;93.33;98663.69;5026822;28;20268;-66
2021/09/13 00:42:42;;;;;;;3.17;2.35;;;;;;;10.90;93.10;98666.69;5026862;28;20017;-66
2021/09/13 00:45:08;;;;;;;4.75;2.42;;;;;;;10.78;93.15;98664.28;5026728;28;20018;-66
2021/09/13 00:47:34;;;;;;;4.63;2.90;;;;;;;10.81;93.96;98661.59;5026770;28;20072;-66
2021/09/13 00:49:59;;;;;;;4.00;1.90;;;;;;;10.71;93.60;98660.03;5026746;28;20032;-66
2021/09/13 00:52:25;;;;;;;2.97;1.95;;;;;;;10.73;93.79;98663.53;5026798;28;20022;-66
2021/09/13 00:54:50;;;;;;;2.92;1.90;;;;;;;10.61;93.84;98662.00;5026628;28;20022;-66
2021/09/13 00:57:16;;;;;;;3.67;2.70;;;;;;;10.69;94.81;98667.09;5026574;28;20019;-66
2021/09/13 00:59:41;;;;;;;3.08;2.55;;;;;;;10.66;94.84;98656.63;5026532;28;20313;-66
2021/09/13 01:02:07;;;;;;;2.90;2.33;;;;;;;10.68;93.95;98652.22;5026534;28;20089;-66
2021/09/13 01:04:32;;;;;;;5.10;3.17;;;;;;;10.71;94.36;98652.16;5026205;28;20085;-66
2021/09/13 01:06:58;;;;;;;5.78;3.00;;;;;;;10.65;94.35;98645.25;5026354;28;20025;-66
2021/09/13 01:09:24;;;;;;;4.35;2.90;;;;;;;10.68;94.29;98650.44;5026361;28;20025;-66
2021/09/13 01:11:49;;;;;;;11.25;2.75;;;;;;;10.57;93.48;98648.94;5026302;28;20252;-66
2021/09/13 01:14:16;;;;;;;8.80;2.70;;;;;;;10.61;93.51;98651.47;5026247;28;20376;-66
2021/09/13 01:16:42;;;;;;;4.00;2.75;;;;;;;10.57;93.49;98651.56;5026217;28;20024;-66
2021/09/13 01:19:07;;;;;;;5.45;3.60;;;;;;;10.62;94.36;98649.69;5026150;28;20021;-66
2021/09/13 01:21:35;;;;;;;7.15;2.95;;;;;;;10.61;94.28;98647.97;5026125;28;20021;-66
2021/09/13 01:24:01;;;;;;;6.95;2.80;;;;;;;10.69;94.69;98641.66;5025374;28;20317;-66
2021/09/13 01:26:26;;;;;;;3.25;2.65;;;;;;;10.64;94.04;98632.13;5026199;28;20025;-66
2021/09/13 01:28:51;;;;;;;3.97;2.70;;;;;;;10.57;94.27;98638.41;5025960;28;20045;-66
2021/09/13 01:31:17;;;;;;;4.72;2.22;;;;;;;10.60;93.77;98636.56;5026188;28;20088;-66
2021/09/13 01:33:43;;;;;;;3.88;2.90;;;;;;;10.60;93.10;98636.56;5025863;28;20018;-66
2021/09/13 01:36:08;;;;;;;4.18;2.20;;;;;;;10.52;93.39;98632.34;5025827;28;20229;-66
2021/09/13 01:38:34;;;;;;;3.03;2.20;;;;;;;10.39;93.58;98630.84;5025563;28;20028;-66
2021/09/13 01:40:59;;;;;;;4.03;2.58;;;;;;;10.20;93.22;98632.94;5025639;28;20053;-66
2021/09/13 01:43:24;;;;;;;7.70;2.75;;;;;;;10.29;93.91;98639.81;5025691;28;20018;-66
2021/09/13 01:45:50;;;;;;;5.05;2.58;;;;;;;10.31;94.15;98632.72;5025562;28;20032;-66
2021/09/13 01:48:15;;;;;;;3.60;2.40;;;;;;;10.27;94.29;98636.31;5025622;28;20104;-66
2021/09/13 01:50:41;;;;;;;3.65;2.50;;;;;;;10.33;93.88;98630.94;5025580;28;20025;-66
2021/09/13 01:53:07;;;;;;;3.85;2.35;;;;;;;10.40;93.83;98635.19;5025525;28;20026;-66
2021/09/13 01:55:33;;;;;;;3.63;2.53;;;;;;;10.27;93.87;98631.94;5025461;28;20021;-66
2021/09/13 01:57:58;;;;;;;3.70;2.85;;;;;;;10.23;94.06;98632.03;5025478;28;20037;-66
2021/09/13 02:00:24;;;;;;;3.97;2.85;;;;;;;10.07;93.97;98638.44;5025469;28;20034;-66
2021/09/13 02:02:49;;;;;;;5.68;3.08;;;;;;;9.98;93.83;98633.31;5025269;28;20030;-66
2021/09/13 02:05:15;;;;;;;6.20;2.90;;;;;;;10.12;94.59;98639.22;5025041;28;20046;-66
2021/09/13 02:07:40;;;;;;;6.18;3.22;;;;;;;10.14;93.86;98629.56;5025238;28;20325;-66
2021/09/13 02:10:06;;;;;;;4.63;3.00;;;;;;;9.98;93.48;98628.94;5025213;28;20022;-66
2021/09/13 02:12:32;;;;;;;3.67;2.70;;;;;;;10.05;93.98;98627.91;5025118;28;20049;-66
2021/09/13 02:14:57;;;;;;;6.43;2.35;;;;;;;9.98;94.03;98622.78;5025172;28;20051;-66
2021/09/13 02:17:23;;;;;;;7.28;2.53;;;;;;;9.93;93.85;98624.63;5025405;28;20037;-66
2021/09/13 02:19:48;;;;;;;4.63;2.67;;;;;;;9.86;93.48;98628.25;5025046;28;20022;-66
2021/09/13 02:22:15;;;;;;;2.85;2.53;;;;;;;9.95;94.08;98625.47;5025008;28;20022;-66
2021/09/13 02:24:41;;;;;;;4.32;3.03;;;;;;;9.95;94.29;98628.09;5024961;28;20021;-66
2021/09/13 02:27:07;;;;;;;3.35;2.60;;;;;;;9.98;94.21;98628.03;5024813;28;20044;-66
2021/09/13 02:29:33;;;;;;;4.18;2.75;;;;;;;9.87;94.07;98625.59;5024891;28;20029;-66
2021/09/13 02:31:59;;;;;;;2.67;2.20;;;;;;;9.74;93.99;98625.81;5024839;28;20243;-66
2021/09/13 02:34:24;;;;;;;3.60;2.60;;;;;;;9.69;94.09;98630.28;5024571;28;20371;-66
2021/09/13 02:36:49;;;;;;;3.65;2.70;;;;;;;9.72;94.39;98619.72;5024050;28;20014;-66
2021/09/13 02:39:15;;;;;;;3.92;2.22;;;;;;;9.84;94.21;98630.06;5024878;28;20021;-66
2021/09/13 02:41:40;;;;;;;3.63;2.63;;;;;;;9.92;94.27;98628.16;5024633;28;20209;-66
2021/09/13 02:44:06;;;;;;;7.68;2.97;;;;;;;9.85;94.39;98631.78;5024654;28;20018;-66
2021/09/13 02:46:31;;;;;;;5.03;2.70;;;;;;;9.87;94.50;98636.09;5024545;28;20022;-66
2021/09/13 02:48:56;;;;;;;4.45;3.22;;;;;;;9.77;93.80;98631.03;5024561;28;20136;-66
2021/09/13 02:51:22;;;;;;;6.45;3.35;;;;;;;9.67;94.08;98626.81;5024536;28;20029;-66
2021/09/13 02:53:48;;;;;;;4.57;3.33;;;;;;;9.80;94.28;98617.81;5024508;28;20025;-66
2021/09/13 02:56:13;;;;;;;4.40;2.65;;;;;;;9.74;94.56;98623.19;5024486;28;20025;-66
2021/09/13 02:58:39;;;;;;;3.25;2.30;;;;;;;9.80;95.03;98623.09;5024419;28;20026;-66
2021/09/13 03:01:04;;;;;;;3.47;2.38;;;;;;;9.78;94.04;98624.91;5025005;28;20325;-66
2021/09/13 03:03:30;;;;;;;9.07;2.67;;;;;;;9.65;93.43;98623.34;5024752;28;20028;-66
2021/09/13 03:05:55;;;;;;;5.45;2.53;;;;;;;9.60;94.80;98620.81;5024569;28;20057;-66
2021/09/13 03:08:20;;;;;;;4.13;2.55;;;;;;;9.67;95.04;98621.56;5024724;28;20075;-66
2021/09/13 03:10:46;;;;;;;3.63;2.50;;;;;;;9.74;94.46;98617.94;5024792;28;20041;-66
2021/09/13 03:13:12;;;;;;;4.93;2.53;;;;;;;9.65;93.86;98623.34;5024769;28;20089;-66
2021/09/13 03:15:37;;;;;;;5.22;2.67;;;;;;;9.52;94.16;98627.06;5024557;28;20028;-66
2021/09/13 03:18:03;;;;;;;4.63;3.10;;;;;;;9.46;94.66;98627.16;5024649;28;20253;-66
2021/09/13 03:20:29;;;;;;;4.32;2.45;;;;;;;9.45;94.51;98623.66;5024528;28;20049;-66
2021/09/13 03:22:54;;;;;;;2.83;2.22;;;;;;;9.61;94.93;98632.16;5024668;28;20045;-66
2021/09/13 03:25:20;;;;;;;3.58;2.40;;;;;;;9.51;93.92;98635.81;5024470;28;20030;-66
2021/09/13 03:27:45;;;;;;;3.92;2.30;;;;;;;9.51;94.20;98630.56;5024519;28;20037;-66
2021/09/13 03:30:11;;;;;;;4.57;2.75;;;;;;;9.38;94.73;98623.75;5024567;28;20078;-66
2021/09/13 03:32:37;;;;;;;5.97;3.80;;;;;;;9.41;94.86;98623.72;5024507;28;20080;-66
2021/09/13 03:35:03;;;;;;;7.63;3.85;;;;;;;9.52;94.84;98625.28;5024566;28;20026;-66
2021/09/13 03:37:28;;;;;;;6.55;3.03;;;;;;;9.54;94.57;98626.16;5024431;28;20017;-66
2021/09/13 03:39:54;;;;;;;7.43;2.90;;;;;;;9.51;93.98;98625.31;5024638;28;20018;-66
2021/09/13 03:42:19;;;;;;;3.20;2.22;;;;;;;9.53;94.06;98628.78;5024584;28;20359;-66
2021/09/13 03:44:45;;;;;;;5.90;3.08;;;;;;;9.58;93.55;98629.56;5024431;28;20025;-66
2021/09/13 03:47:10;;;;;;;4.68;2.88;;;;;;;9.60;93.25;98630.44;5026239;28;20080;-66
2021/09/13 03:49:36;;;;;;;5.10;2.65;;;;;;;9.55;93.91;98627.03;5028369;28;20248;-66
2021/09/13 03:52:02;;;;;;;5.68;2.80;;;;;;;9.32;94.15;98621.22;5028353;28;20034;-66
2021/09/13 03:54:27;;;;;;;6.40;2.75;;;;;;;9.32;94.02;98623.84;5028486;28;20025;-66
2021/09/13 03:56:52;;;;;;;4.53;2.95;;;;;;;9.49;94.26;98619.22;5028399;28;20205;-66
2021/09/13 03:59:18;;;;;;;5.07;3.05;;;;;;;9.55;94.09;98616.50;5028142;28;20048;-66
2021/09/13 04:01:44;;;;;;;4.32;2.95;;;;;;;9.57;94.27;98618.22;5028120;28;20057;-66
2021/09/13 04:04:10;;;;;;;6.35;3.35;;;;;;;9.34;93.44;98611.56;5027662;28;20022;-65
2021/09/13 04:11:53;;;;;;;9.10;3.40;;;;;;;9.26;94.30;98603.81;5027674;28;20072;-65
2021/09/13 04:14:14;;;;;;;9.27;3.58;;;;;;;9.17;94.56;98603.94;5027016;28;20404;-66
2021/09/13 04:16:40;;;;;;;11.18;4.60;;;;;;;9.13;95.26;98598.75;5026826;28;20014;-66
2021/09/13 04:19:05;;;;;;;5.40;3.33;;;;;;;9.22;94.37;98596.00;5026651;28;20025;-66
2021/09/13 04:21:31;;;;;;;18.70;3.72;;;;;;;9.23;94.70;98597.72;5027290;28;20093;-66
2021/09/13 04:23:56;;;;;;;7.75;3.95;;;;;;;9.18;94.11;98604.81;5027197;28;20380;-66
2021/09/13 04:26:22;;;;;;;10.15;3.45;;;;;;;9.18;94.03;98599.56;5027170;28;20025;-66
2021/09/13 04:28:47;;;;;;;8.77;3.35;;;;;;;9.21;93.84;98599.50;5027154;28;20022;-66
2021/09/13 04:31:13;;;;;;;5.43;3.30;;;;;;;9.09;93.81;98599.69;5027114;28;20333;-66
2021/09/13 04:33:38;;;;;;;4.25;3.08;;;;;;;9.03;93.85;98598.03;5027144;28;20313;-66
2021/09/13 04:36:03;;;;;;;6.80;3.30;;;;;;;9.00;93.84;98602.44;5027073;28;20068;-66
2021/09/13 04:38:29;;;;;;;5.05;3.10;;;;;;;9.01;93.65;98594.53;5027041;28;20048;-66
2021/09/13 04:40:54;;;;;;;6.20;3.28;;;;;;;9.02;93.94;98601.53;5026931;28;20022;-66
2021/09/13 04:43:20;;;;;;;7.78;3.13;;;;;;;9.08;93.47;98592.72;5026921;28;20017;-66
2021/09/13 04:45:45;;;;;;;5.57;3.08;;;;;;;8.87;93.31;98598.25;5026880;28;20097;-66
2021/09/13 04:48:10;;;;;;;6.70;3.60;;;;;;;8.86;93.81;98596.50;5026827;28;20317;-66
2021/09/13 04:50:36;;;;;;;4.50;3.13;;;;;;;8.76;93.96;98591.38;5026813;28;20021;-66
2021/09/13 04:53:01;;;;;;;8.68;3.75;;;;;;;8.85;94.20;98594.78;5026769;28;20017;-66
2021/09/13 04:55:27;;;;;;;6.63;3.10;;;;;;;8.85;93.56;98589.53;5026740;28;20265;-66
2021/09/13 04:57:52;;;;;;;4.28;2.95;;;;;;;8.80;93.93;98590.44;5026196;28;20018;-66
2021/09/13 05:00:20;;;;;;;6.10;2.90;;;;;;;8.91;94.11;98599.91;5026371;28;20244;-66
2021/09/13 05:02:46;;;;;;;4.45;3.20;;;;;;;8.87;94.24;98611.34;5026760;28;20249;-66
2021/09/13 05:05:11;;;;;;;6.35;2.95;;;;;;;8.73;93.94;98611.53;5026397;28;20057;-66
2021/09/13 05:07:37;;;;;;;4.80;2.95;;;;;;;8.76;94.21;98612.38;5026652;28;20033;-66
2021/09/13 05:10:03;;;;;;;4.05;2.35;;;;;;;8.93;94.49;98613.91;5026464;28;20053;-66
2021/09/13 05:12:28;;;;;;;13.98;2.80;;;;;;;8.91;93.28;98615.66;5026549;28;20029;-66
2021/09/13 05:14:53;;;;;;;2.67;2.15;;;;;;;8.91;94.18;98620.91;5026392;28;20045;-66
2021/09/13 05:17:19;;;;;;;3.75;2.50;;;;;;;8.70;93.87;98622.06;5026411;28;20026;-66
2021/09/13 05:19:44;;;;;;;4.35;3.25;;;;;;;8.80;95.06;98621.09;5026279;28;20049;-66
2021/09/13 05:22:09;;;;;;;6.47;2.63;;;;;;;8.91;94.79;98626.16;5026527;28;20325;-66
2021/09/13 05:24:35;;;;;;;3.65;2.63;;;;;;;8.82;94.55;98628.03;5026262;28;20049;-66
2021/09/13 05:27:00;;;;;;;5.35;3.30;;;;;;;8.85;94.87;98634.16;5026149;28;20089;-66
2021/09/13 05:29:26;;;;;;;4.47;2.63;;;;;;;9.04;94.50;98636.50;5026182;28;20072;-66
2021/09/13 05:31:51;;;;;;;5.45;2.78;;;;;;;9.13;93.85;98638.13;5026126;28;20317;-66
2021/09/13 05:34:16;;;;;;;3.00;2.45;;;;;;;9.14;93.66;98629.38;5026069;28;20088;-66
2021/09/13 05:36:42;;;;;;;3.38;2.53;;;;;;;9.27;93.30;98630.94;5026104;28;20032;-66
2021/09/13 05:39:07;;;;;;;3.20;2.50;;;;;;;9.37;92.93;98627.28;5026019;28;20089;-66
2021/09/13 05:41:33;;;;;;;3.13;2.40;;;;;;;9.61;92.55;98629.53;5025886;28;20026;-66
2021/09/13 05:43:58;;;;;;;3.35;2.42;;;;;;;9.88;91.67;98637.00;5025895;28;20032;-66
2021/09/13 05:46:24;;;;;;;2.40;2.05;;;;;;;10.11;91.03;98635.75;5025670;28;20313;-66
2021/09/13 05:48:49;;;;;;;5.70;2.20;;;;;;;10.30;90.73;98631.88;5025996;28;20033;-66
2021/09/13 05:51:15;;;;;;;3.38;1.98;;;;;;;10.67;88.98;98632.06;5025604;28;20205;-66
2021/09/13 05:53:40;;;;;;;3.72;2.03;;;;;;;10.82;88.14;98642.25;5025545;28;20022;-66
2021/09/13 05:56:05;;;;;;;6.22;2.20;;;;;;;11.05;87.92;98644.44;5025486;28;20014;-66
2021/09/13 05:58:31;;;;;;;4.15;2.15;;;;;;;11.12;87.46;98639.00;5025493;28;20022;-66
2021/09/13 06:00:56;;;;;;;3.75;2.30;;;;;;;11.27;87.22;98643.94;5025425;28;20198;-66
2021/09/13 06:03:21;;;;;;;4.30;1.92;;;;;;;11.81;85.53;98645.34;5025298;28;20064;-66
2021/09/13 06:05:47;;;;;;;2.22;1.83;;;;;;;12.29;83.11;98646.75;5025106;28;20037;-66
2021/09/13 06:08:12;;;;;;;2.67;1.95;;;;;;;12.67;82.36;98640.44;5025286;28;20092;-66
2021/09/13 06:10:38;;;;;;;1.90;1.60;;;;;;;12.97;81.89;98635.16;5007598;28;20045;-66
2021/09/13 06:13:03;;;;;;;5.68;2.00;;;;;;;13.30;79.84;98645.69;5025237;28;20121;-66
2021/09/13 06:15:29;;;;;;;5.78;2.28;;;;;;;13.63;78.03;98636.72;5025160;28;20010;-66
2021/09/13 06:17:54;;;;;;;4.25;1.73;;;;;;;13.90;76.71;98646.44;5025431;28;20013;-66
2021/09/13 06:20:22;;;;;;;5.88;2.08;;;;;;;13.97;75.78;98647.97;5025053;28;20060;-66
2021/09/13 06:22:47;;;;;;;4.63;2.22;;;;;;;14.41;75.98;98650.03;5025056;28;20210;-66
2021/09/13 06:25:12;;;;;;;2.53;2.08;;;;;;;14.59;75.12;98649.41;5024902;28;20064;-66
2021/09/13 06:27:38;;;;;;;3.35;1.90;;;;;;;14.71;75.17;98639.22;5024937;28;20068;-66
2021/09/13 06:30:04;;;;;;;5.35;2.00;;;;;;;14.72;74.85;98648.03;5024945;28;20025;-66
2021/09/13 06:32:31;;;;;;;5.20;1.90;;;;;;;15.18;74.99;98649.88;5024848;28;20328;-66
2021/09/13 06:34:56;;;;;;;4.18;1.95;;;;;;;15.92;71.82;98640.78;5024876;28;20220;-66
2021/09/13 06:37:23;;;;;;;2.72;2.03;;;;;;;16.40;71.87;98638.75;5024769;28;20022;-66
2021/09/13 06:39:48;;;;;;;3.08;1.80;;;;;;;16.69;71.03;98638.38;5024718;28;20065;-66
2021/09/13 06:42:14;;;;;;;4.03;1.60;;;;;;;17.07;69.72;98642.84;5024694;28;20026;-66
2021/09/13 06:44:39;;;;;;;3.95;2.00;;;;;;;17.55;68.01;98636.22;5024631;28;20018;-66
2021/09/13 06:49:32;;;;;;;2.67;2.00;;;;;;;18.05;67.63;98640.88;5024877;28;20364;-65
2021/09/13 06:51:58;;;;;;;2.83;1.80;;;;;;;18.38;66.77;98638.38;5024585;28;20093;-65
2021/09/13 06:54:23;;;;;;;3.88;2.08;;;;;;;18.69;65.92;98630.50;5024529;28;20040;-65
2021/09/13 06:56:49;;;;;;;3.42;1.92;;;;;;;18.43;67.35;98638.97;5024499;28;20024;-65
2021/09/13 06:59:15;;;;;;;4.78;2.00;;;;;;;18.94;64.63;98628.28;5024745;28;20330;-65
2021/09/13 07:01:41;;;;;;;6.18;2.15;;;;;;;19.53;64.02;98638.44;5024455;28;20028;-65
2021/09/13 07:04:06;;;;;;;3.72;2.30;;;;;;;19.43;64.80;98638.09;5024311;28;20270;-65
2021/09/13 07:06:31;;;;;;;2.65;1.92;;;;;;;20.12;63.91;98638.66;5024165;28;20141;-65
2021/09/13 07:08:57;;;;;;;3.50;2.35;;;;;;;19.97;63.34;98635.00;5024312;28;20042;-65
2021/09/13 07:11:23;;;;;;;6.18;2.17;;;;;;;20.48;62.99;98642.72;5006704;28;20057;-65
2021/09/13 07:13:49;;;;;;;6.95;2.90;;;;;;;21.07;62.06;98642.69;5024254;28;20030;-65
2021/09/13 07:16:14;;;;;;;4.53;2.55;;;;;;;20.64;62.36;98642.66;5024434;28;20018;-65
2021/09/13 07:18:39;;;;;;;6.47;2.65;;;;;;;21.05;62.93;98644.59;5024226;28;20221;-65
2021/09/13 07:21:05;;;;;;;6.43;3.50;;;;;;;20.91;63.12;98657.03;5023850;28;20092;-65
2021/09/13 07:23:30;;;;;;;11.95;4.05;;;;;;;21.72;62.56;98653.75;5024139;28;20272;-65
2021/09/13 07:25:56;;;;;;;7.63;3.38;;;;;;;21.89;60.68;98650.91;5024312;28;20125;-65
2021/09/13 07:28:21;;;;;;;9.52;3.85;;;;;;;22.17;59.45;98656.19;5024083;28;20313;-65
2021/09/13 07:30:47;;;;;;;6.28;3.20;;;;;;;22.65;59.96;98647.63;5024096;28;20033;-65
2021/09/13 07:33:13;;;;;;;6.95;3.05;;;;;;;22.21;60.70;98649.69;5024329;28;20025;-65
2021/09/13 07:35:38;;;;;;;4.10;2.60;;;;;;;22.46;59.69;98658.66;5024056;28;20249;-65
2021/09/13 07:38:04;;;;;;;9.93;3.60;;;;;;;22.56;58.65;98661.66;5023995;28;20021;-65
2021/09/13 07:40:29;;;;;;;8.98;2.80;;;;;;;22.71;59.24;98660.59;5023967;28;20046;-65
2021/09/13 07:42:55;;;;;;;5.97;3.03;;;;;;;23.95;56.23;98656.22;5023954;28;20060;-65
2021/09/13 07:45:22;;;;;;;7.25;3.10;;;;;;;23.45;56.07;98659.00;5023859;28;20049;-65
2021/09/13 07:47:47;;;;;;;7.47;3.47;;;;;;;23.06;56.67;98667.09;5023969;28;20064;-65
2021/09/13 07:50:13;;;;;;;6.00;2.90;;;;;;;23.04;57.98;98664.50;5023911;28;20026;-65
2021/09/13 07:52:38;;;;;;;4.57;2.90;;;;;;;22.75;60.04;98672.84;5023869;28;20024;-65
2021/09/13 07:55:05;;;;;;;6.88;3.10;;;;;;;22.60;59.46;98673.88;5023824;28;20022;-65
2021/09/13 07:57:30;;;;;;;5.38;2.95;;;;;;;22.08;61.55;98671.06;5023847;28;20029;-65
2021/09/13 07:59:56;;;;;;;10.13;3.38;;;;;;;22.31;61.75;98666.88;5023768;28;20321;-65
2021/09/13 08:02:21;;;;;;;5.70;3.40;;;;;;;22.98;57.49;98659.59;5023676;28;20033;-65
2021/09/13 08:04:47;;;;;;;4.35;2.75;;;;;;;24.27;55.12;98657.41;5023598;28;20026;-65
2021/09/13 08:07:12;;;;;;;9.30;3.35;;;;;;;24.67;54.36;98658.88;5023684;28;20018;-65
2021/09/13 08:09:38;;;;;;;8.25;2.72;;;;;;;25.72;52.68;98665.00;5023673;28;20026;-65
2021/09/13 08:12:03;;;;;;;5.40;2.80;;;;;;;25.98;52.57;98667.38;5023668;28;20025;-65
2021/09/13 08:14:29;;;;;;;4.28;2.65;;;;;;;26.18;50.68;98671.13;5023685;28;20056;-65
2021/09/13 08:16:54;;;;;;;7.05;2.88;;;;;;;26.33;50.89;98670.72;5023937;28;20085;-65
2021/09/13 08:19:19;;;;;;;5.45;2.78;;;;;;;26.37;51.69;98674.03;5023601;28;20022;-65
2021/09/13 08:21:45;;;;;;;5.22;2.25;;;;;;;25.77;51.26;98678.97;5023592;28;20274;-65
2021/09/13 08:24:11;;;;;;;4.43;2.70;;;;;;;24.89;54.99;98677.81;5023517;28;20022;-65
2021/09/13 08:26:38;;;;;;;4.63;3.10;;;;;;;24.15;56.53;98677.16;5023483;28;20026;-65
2021/09/13 08:29:05;;;;;;;6.15;2.65;;;;;;;23.50;58.10;98678.31;5023473;28;20084;-65
2021/09/13 08:31:31;;;;;;;5.95;2.78;;;;;;;23.35;59.81;98684.78;5023752;28;20081;-65
2021/09/13 08:33:56;;;;;;;5.80;3.10;;;;;;;23.64;59.98;98680.03;5026231;28;20025;-65
2021/09/13 08:36:21;;;;;;;5.07;2.72;;;;;;;23.46;59.57;98670.56;5027040;28;20021;-65
2021/09/13 08:38:47;;;;;;;6.97;2.65;;;;;;;23.38;59.90;98678.34;5026980;28;20317;-65
2021/09/13 08:41:12;;;;;;;5.50;3.00;;;;;;;23.18;61.34;98682.38;5026946;28;20093;-65
2021/09/13 08:43:40;;;;;;;5.82;2.53;;;;;;;23.20;59.68;98685.81;5026939;28;20029;-65
2021/09/13 08:46:14;;;;;;;5.88;2.88;;;;;;;24.38;56.48;98686.22;5026828;28;20029;-65
2021/09/13 08:48:47;;;;;;;5.85;2.65;;;;;;;25.38;57.13;98690.22;5027167;28;20383;-65
2021/09/13 08:53:42;;;;;;;4.97;2.33;;;;;;;25.10;57.03;98689.66;5027016;28;20026;-65
2021/09/13 08:56:13;;;;;;;7.18;2.88;;;;;;;25.33;55.36;98687.88;5026892;28;20025;-65
2021/09/13 08:58:41;;;;;;;4.97;2.80;;;;;;;26.23;53.35;98687.81;5026747;28;20065;-65
2021/09/13 09:01:07;;;;;;;6.68;2.42;;;;;;;26.65;51.55;98697.78;5026582;28;20088;-65
2021/09/13 09:03:35;;;;;;;5.20;2.78;;;;;;;26.40;53.55;98695.38;5026489;28;20030;-65
2021/09/13 09:06:00;;;;;;;7.22;3.03;;;;;;;26.55;52.46;98699.50;5026222;28;20034;-65
2021/09/13 09:08:28;;;;;;;6.05;2.90;;;;;;;26.34;51.79;98691.34;5026418;28;20033;-65
2021/09/13 09:10:58;;;;;;;4.90;2.33;;;;;;;27.41;50.37;98686.75;5026403;28;20072;-65
2021/09/13 09:13:26;;;;;;;3.83;2.40;;;;;;;27.60;48.73;98690.44;5026337;28;20029;-65
2021/09/13 09:16:03;;;;;;;4.97;2.20;;;;;;;28.38;48.04;98683.34;5026251;28;20026;-65
2021/09/13 09:18:43;;;;;;;6.57;2.78;;;;;;;28.37;48.25;98681.66;5026293;28;20049;-65
2021/09/13 09:21:11;;;;;;;10.20;2.10;;;;;;;26.84;48.96;98684.44;5026278;28;20076;-65
2021/09/13 09:23:57;;;;;;;6.50;2.60;;;;;;;26.39;51.31;98683.69;5026168;28;20072;-65
2021/09/13 09:26:24;;;;;;;7.32;2.53;;;;;;;27.41;50.68;98674.09;5026070;28;20244;-65
2021/09/13 09:28:49;;;;;;;5.15;2.55;;;;;;;27.49;48.55;98666.16;5026300;28;20085;-65
2021/09/13 09:31:32;;;;;;;4.53;2.58;;;;;;;27.14;47.63;98676.44;5026038;28;20022;-65
2021/09/13 09:34:20;;;;;;;6.88;2.42;;;;;;;27.16;47.31;98669.06;5026015;28;20029;-65
2021/09/13 09:36:58;;;;;;;6.45;3.05;;;;;;;26.53;48.33;98679.88;5025960;28;20017;-65
2021/09/13 09:39:28;;;;;;;4.80;2.33;;;;;;;27.49;49.12;98665.31;5025853;28;20029;-65
2021/09/13 09:41:56;;;;;;;3.45;2.80;;;;;;;28.03;46.01;98665.88;5025830;28;20022;-65
2021/09/13 09:44:22;;;;;;;6.30;2.47;;;;;;;27.68;46.71;98668.13;5025223;28;20049;-65
2021/09/13 09:46:47;;;;;;;4.80;2.25;;;;;;;27.53;49.05;98667.63;5025642;28;20026;-65
2021/09/13 09:49:15;;;;;;;8.68;2.55;;;;;;;27.23;49.05;98664.84;5025925;28;20026;-65
2021/09/13 09:51:45;;;;;;;4.65;2.38;;;;;;;27.72;47.58;98654.19;5025666;28;20022;-65
2021/09/13 09:54:17;;;;;;;5.88;2.50;;;;;;;28.23;47.03;98657.69;5025566;28;20064;-65
2021/09/13 09:56:55;;;;;;;6.05;2.50;;;;;;;28.03;46.69;98655.91;5025544;28;20093;-65
2021/09/13 09:59:21;;;;;;;5.30;2.33;;;;;;;27.69;45.42;98661.72;5025483;28;20344;-65
2021/09/13 10:01:48;;;;;;;3.70;2.55;;;;;;;27.37;46.81;98651.03;5025429;28;20029;-65
2021/09/13 10:04:20;;;;;;;5.95;2.75;;;;;;;28.10;48.36;98639.97;5025596;28;20034;-65
2021/09/13 10:06:51;;;;;;;3.92;2.10;;;;;;;28.34;44.94;98648.56;5025239;28;20068;-65
2021/09/13 10:09:17;;;;;;;4.82;2.35;;;;;;;27.78;45.85;98650.09;5025319;28;20054;-65
2021/09/13 10:11:45;;;;;;;6.05;2.80;;;;;;;27.56;46.95;98645.72;5025271;28;20088;-65
2021/09/13 10:14:12;;;;;;;5.97;2.70;;;;;;;27.70;46.39;98648.06;5025230;28;20224;-65
2021/09/13 10:16:40;;;;;;;4.38;2.70;;;;;;;27.27;48.56;98640.16;5025177;28;20025;-65
2021/09/13 10:19:06;;;;;;;4.35;2.40;;;;;;;27.54;48.65;98639.59;5025098;28;20018;-65
2021/09/13 10:21:33;;;;;;;7.75;2.42;;;;;;;28.19;45.92;98642.69;5025103;28;20021;-65
2021/09/13 10:24:00;;;;;;;4.50;2.25;;;;;;;28.03;46.12;98639.66;5025272;28;20190;-65
2021/09/13 10:26:25;;;;;;;8.52;2.70;;;;;;;27.79;46.49;98636.44;5024991;28;20022;-65
2021/09/13 10:29:02;;;;;;;3.75;2.47;;;;;;;27.60;46.98;98640.88;5024934;28;20032;-65
2021/09/13 10:31:45;;;;;;;3.47;2.53;;;;;;;27.79;47.20;98630.16;5024909;28;20025;-65
2021/09/13 10:34:25;;;;;;;4.13;2.45;;;;;;;28.36;47.56;98625.78;5024853;28;20253;-65
2021/09/13 10:37:03;;;;;;;5.28;2.40;;;;;;;28.29;47.16;98621.94;5024812;28;20018;-65
2021/09/13 10:40:02;;;;;;;7.75;2.03;;;;;;;27.96;46.14;98616.03;5024776;28;20345;-65
2021/09/13 10:42:27;;;;;;;5.95;2.55;;;;;;;28.10;45.99;98621.91;5024741;28;20018;-65
2021/09/13 10:45:04;;;;;;;6.53;2.63;;;;;;;27.85;46.17;98614.28;5007194;28;20120;-65
2021/09/13 10:47:29;;;;;;;8.95;2.63;;;;;;;27.69;48.02;98608.50;5024810;28;20030;-65
2021/09/13 10:50:22;;;;;;;4.43;2.30;;;;;;;28.24;47.92;98607.94;5024592;28;20345;-65
2021/09/13 10:52:49;;;;;;;5.63;2.30;;;;;;;28.02;47.72;98600.06;5024577;28;20022;-65
2021/09/13 10:55:17;;;;;;;5.50;2.58;;;;;;;27.34;47.17;98608.03;5024466;28;20093;-65
2021/09/13 10:58:02;;;;;;;3.95;2.17;;;;;;;27.49;46.69;98601.25;5023710;28;20017;-65
2021/09/13 11:00:39;;;;;;;4.72;2.47;;;;;;;26.98;48.75;98594.97;5024425;28;20040;-65
2021/09/13 11:03:23;;;;;;;4.90;2.28;;;;;;;27.58;47.56;98599.63;5024295;28;20025;-65
2021/09/13 11:06:03;;;;;;;4.90;2.50;;;;;;;27.83;48.65;98594.56;5024122;28;20046;-65
2021/09/13 11:08:29;;;;;;;4.75;2.05;;;;;;;28.18;49.91;98594.97;5024307;28;20021;-65
2021/09/13 11:10:56;;;;;;;3.88;2.50;;;;;;;28.17;45.20;98604.09;5024298;28;20060;-65
2021/09/13 11:13:21;;;;;;;4.60;2.17;;;;;;;27.49;46.21;98601.25;5024274;28;20349;-65
2021/09/13 11:15:48;;;;;;;3.42;2.45;;;;;;;27.38;45.88;98587.84;5024234;28;20017;-65
2021/09/13 11:18:41;;;;;;;3.55;2.28;;;;;;;26.99;48.28;98591.31;5024224;28;20030;-65
2021/09/13 11:21:14;;;;;;;4.88;2.63;;;;;;;26.53;48.81;98593.47;5024210;28;20022;-65
2021/09/13 11:23:40;;;;;;;3.80;2.67;;;;;;;27.15;50.69;98583.59;5024149;28;20032;-65
2021/09/13 11:26:05;;;;;;;4.97;2.53;;;;;;;27.44;49.21;98571.09;5024134;28;20026;-65
2021/09/13 11:28:30;;;;;;;6.68;2.63;;;;;;;28.03;46.98;98577.41;5024116;28;20325;-65
2021/09/13 11:30:56;;;;;;;5.38;2.20;;;;;;;27.82;47.35;98576.63;5024095;28;20026;-65
2021/09/13 11:33:22;;;;;;;3.40;2.15;;;;;;;27.06;48.28;98565.47;5024047;28;20037;-65
2021/09/13 11:35:55;;;;;;;2.60;1.85;;;;;;;27.74;46.74;98576.47;5024057;28;20213;-65
2021/09/13 11:38:20;;;;;;;4.97;2.35;;;;;;;27.05;49.46;98569.16;5024040;28;20022;-65
2021/09/13 11:40:46;;;;;;;5.55;2.25;;;;;;;26.82;50.50;98567.56;5024027;28;20240;-65
2021/09/13 11:43:11;;;;;;;5.75;2.70;;;;;;;26.83;49.77;98561.19;5023980;28;20022;-65
2021/09/13 11:45:37;;;;;;;5.07;2.58;;;;;;;26.65;50.99;98570.88;5023859;28;20022;-65